sensor_id;sensor_type;location;lat;lon;timestamp;P1;durP1;ratioP1;P2;durP2;ratioP2
19679;SDS011;9989;48.962;9.182;2023-08-08T00:01:05;4.80;;;1.90;;
19679;SDS011;9989;48.962;9.182;2023-08-08T00:03:31;5.50;;;2.43;;
19679;SDS011;9989;48.962;9.182;2023-08-08T00:05:57;5.00;;;2.13;;
19679;SDS011;9989;48.962;9.182;2023-08-08T00:08:22;5.60;;;2.30;;
19679;SDS011;9989;48.962;9.182;2023-08-08T00:10:48;5.90;;;2.40;;
19679;SDS011;9989;48.962;9.182;2023-08-08T00:13:14;6.73;;;2.30;;
19679;SDS011;9989;48.962;9.182;2023-08-08T00:15:39;5.87;;;2.67;;
19679;SDS011;9989;48.962;9.182;2023-08-08T00:18:05;5.17;;;2.20;;
19679;SDS011;9989;48.962;9.182;2023-08-08T00:20:31;7.33;;;2.60;;
19679;SDS011;9989;48.962;9.182;2023-08-08T00:22:56;6.43;;;2.73;;
19679;SDS011;9989;48.962;9.182;2023-08-08T00:25:22;6.87;;;3.27;;
19679;SDS011;9989;48.962;9.182;2023-08-08T00:27:48;5.93;;;2.80;;
19679;SDS011;9989;48.962;9.182;2023-08-08T00:30:15;5.80;;;2.83;;
19679;SDS011;9989;48.962;9.182;2023-08-08T00:32:41;5.80;;;2.53;;
19679;SDS011;9989;48.962;9.182;2023-08-08T00:35:07;6.07;;;2.60;;
19679;SDS011;9989;48.962;9.182;2023-08-08T00:37:33;6.50;;;2.90;;
19679;SDS011;9989;48.962;9.182;2023-08-08T00:39:59;5.97;;;2.63;;
19679;SDS011;9989;48.962;9.182;2023-08-08T00:42:24;7.57;;;2.77;;
19679;SDS011;9989;48.962;9.182;2023-08-08T00:44:50;6.57;;;2.60;;
19679;SDS011;9989;48.962;9.182;2023-08-08T00:47:16;6.23;;;2.50;;
19679;SDS011;9989;48.962;9.182;2023-08-08T00:49:41;5.70;;;2.33;;
19679;SDS011;9989;48.962;9.182;2023-08-08T00:52:09;7.13;;;2.60;;
19679;SDS011;9989;48.962;9.182;2023-08-08T00:54:35;8.30;;;2.60;;
19679;SDS011;9989;48.962;9.182;2023-08-08T00:57:01;6.80;;;2.50;;
19679;SDS011;9989;48.962;9.182;2023-08-08T00:59:27;5.70;;;2.77;;
19679;SDS011;9989;48.962;9.182;2023-08-08T01:01:52;6.73;;;2.90;;
19679;SDS011;9989;48.962;9.182;2023-08-08T01:04:18;6.13;;;2.33;;
19679;SDS011;9989;48.962;9.182;2023-08-08T01:07:04;5.77;;;2.57;;
19679;SDS011;9989;48.962;9.182;2023-08-08T01:12:32;4.97;;;2.33;;
19679;SDS011;9989;48.962;9.182;2023-08-08T01:15:06;5.30;;;2.20;;
19679;SDS011;9989;48.962;9.182;2023-08-08T01:17:33;5.73;;;2.50;;
19679;SDS011;9989;48.962;9.182;2023-08-08T01:20:02;5.83;;;2.47;;
19679;SDS011;9989;48.962;9.182;2023-08-08T01:22:35;4.87;;;2.03;;
19679;SDS011;9989;48.962;9.182;2023-08-08T01:25:04;5.03;;;2.50;;
19679;SDS011;9989;48.962;9.182;2023-08-08T01:27:30;6.23;;;2.43;;
19679;SDS011;9989;48.962;9.182;2023-08-08T01:29:56;5.33;;;2.40;;
19679;SDS011;9989;48.962;9.182;2023-08-08T01:32:22;6.17;;;2.23;;
19679;SDS011;9989;48.962;9.182;2023-08-08T01:34:47;5.70;;;2.20;;
19679;SDS011;9989;48.962;9.182;2023-08-08T01:37:15;5.57;;;2.40;;
19679;SDS011;9989;48.962;9.182;2023-08-08T01:39:45;5.63;;;2.30;;
19679;SDS011;9989;48.962;9.182;2023-08-08T01:42:12;5.57;;;2.30;;
19679;SDS011;9989;48.962;9.182;2023-08-08T01:44:38;6.73;;;2.43;;
19679;SDS011;9989;48.962;9.182;2023-08-08T01:47:06;5.67;;;2.67;;
19679;SDS011;9989;48.962;9.182;2023-08-08T01:49:33;4.83;;;2.10;;
19679;SDS011;9989;48.962;9.182;2023-08-08T01:51:58;6.63;;;2.87;;
19679;SDS011;9989;48.962;9.182;2023-08-08T01:54:24;6.17;;;2.83;;
19679;SDS011;9989;48.962;9.182;2023-08-08T01:56:50;7.90;;;2.70;;
19679;SDS011;9989;48.962;9.182;2023-08-08T01:59:17;5.17;;;2.60;;
19679;SDS011;9989;48.962;9.182;2023-08-08T02:01:42;4.77;;;2.37;;
19679;SDS011;9989;48.962;9.182;2023-08-08T02:04:08;4.37;;;2.30;;
19679;SDS011;9989;48.962;9.182;2023-08-08T02:06:34;6.00;;;2.77;;
19679;SDS011;9989;48.962;9.182;2023-08-08T02:08:59;6.53;;;3.30;;
19679;SDS011;9989;48.962;9.182;2023-08-08T02:11:25;10.53;;;5.60;;
19679;SDS011;9989;48.962;9.182;2023-08-08T02:13:51;10.53;;;5.97;;
19679;SDS011;9989;48.962;9.182;2023-08-08T02:16:16;8.60;;;4.70;;
19679;SDS011;9989;48.962;9.182;2023-08-08T02:18:42;7.73;;;3.80;;
19679;SDS011;9989;48.962;9.182;2023-08-08T02:21:08;7.17;;;3.13;;
19679;SDS011;9989;48.962;9.182;2023-08-08T02:23:34;7.97;;;2.83;;
19679;SDS011;9989;48.962;9.182;2023-08-08T02:25:59;8.00;;;2.70;;
19679;SDS011;9989;48.962;9.182;2023-08-08T02:28:25;5.63;;;2.53;;
19679;SDS011;9989;48.962;9.182;2023-08-08T02:30:52;5.03;;;2.33;;
19679;SDS011;9989;48.962;9.182;2023-08-08T02:33:18;5.93;;;2.83;;
19679;SDS011;9989;48.962;9.182;2023-08-08T02:35:44;5.50;;;2.50;;
19679;SDS011;9989;48.962;9.182;2023-08-08T02:38:10;5.17;;;2.57;;
19679;SDS011;9989;48.962;9.182;2023-08-08T02:40:36;7.77;;;2.73;;
19679;SDS011;9989;48.962;9.182;2023-08-08T02:43:01;5.03;;;2.03;;
19679;SDS011;9989;48.962;9.182;2023-08-08T02:45:27;4.90;;;2.17;;
19679;SDS011;9989;48.962;9.182;2023-08-08T02:47:53;6.63;;;2.30;;
19679;SDS011;9989;48.962;9.182;2023-08-08T02:50:18;4.17;;;1.90;;
19679;SDS011;9989;48.962;9.182;2023-08-08T02:52:44;7.90;;;2.47;;
19679;SDS011;9989;48.962;9.182;2023-08-08T02:55:10;5.20;;;2.37;;
19679;SDS011;9989;48.962;9.182;2023-08-08T02:57:36;4.60;;;2.40;;
19679;SDS011;9989;48.962;9.182;2023-08-08T03:00:02;5.53;;;2.53;;
19679;SDS011;9989;48.962;9.182;2023-08-08T03:02:29;5.20;;;2.37;;
19679;SDS011;9989;48.962;9.182;2023-08-08T03:04:55;4.80;;;2.17;;
19679;SDS011;9989;48.962;9.182;2023-08-08T03:07:20;5.30;;;2.50;;
19679;SDS011;9989;48.962;9.182;2023-08-08T03:09:46;5.60;;;2.37;;
19679;SDS011;9989;48.962;9.182;2023-08-08T03:12:12;6.20;;;2.90;;
19679;SDS011;9989;48.962;9.182;2023-08-08T03:14:38;6.13;;;2.80;;
19679;SDS011;9989;48.962;9.182;2023-08-08T03:17:04;5.87;;;2.67;;
19679;SDS011;9989;48.962;9.182;2023-08-08T03:19:30;6.67;;;2.90;;
19679;SDS011;9989;48.962;9.182;2023-08-08T03:21:56;5.23;;;2.27;;
19679;SDS011;9989;48.962;9.182;2023-08-08T03:24:22;6.40;;;2.70;;
19679;SDS011;9989;48.962;9.182;2023-08-08T03:26:48;6.13;;;2.57;;
19679;SDS011;9989;48.962;9.182;2023-08-08T03:29:13;5.30;;;2.40;;
19679;SDS011;9989;48.962;9.182;2023-08-08T03:31:39;6.43;;;2.80;;
19679;SDS011;9989;48.962;9.182;2023-08-08T03:34:05;5.67;;;2.50;;
19679;SDS011;9989;48.962;9.182;2023-08-08T03:36:30;7.93;;;3.03;;
19679;SDS011;9989;48.962;9.182;2023-08-08T03:38:56;4.50;;;2.10;;
19679;SDS011;9989;48.962;9.182;2023-08-08T03:41:22;7.20;;;2.40;;
19679;SDS011;9989;48.962;9.182;2023-08-08T03:43:48;4.83;;;2.33;;
19679;SDS011;9989;48.962;9.182;2023-08-08T03:46:14;5.77;;;2.33;;
19679;SDS011;9989;48.962;9.182;2023-08-08T03:48:39;4.63;;;2.17;;
19679;SDS011;9989;48.962;9.182;2023-08-08T03:51:05;6.27;;;2.80;;
19679;SDS011;9989;48.962;9.182;2023-08-08T03:53:31;5.80;;;2.50;;
19679;SDS011;9989;48.962;9.182;2023-08-08T03:55:58;5.83;;;2.50;;
19679;SDS011;9989;48.962;9.182;2023-08-08T03:58:23;5.63;;;2.47;;
19679;SDS011;9989;48.962;9.182;2023-08-08T04:00:49;4.80;;;2.30;;
19679;SDS011;9989;48.962;9.182;2023-08-08T04:03:15;6.57;;;2.90;;
19679;SDS011;9989;48.962;9.182;2023-08-08T04:05:44;6.13;;;2.43;;
19679;SDS011;9989;48.962;9.182;2023-08-08T04:08:14;6.80;;;2.70;;
19679;SDS011;9989;48.962;9.182;2023-08-08T04:10:41;6.27;;;2.70;;
19679;SDS011;9989;48.962;9.182;2023-08-08T04:13:07;5.70;;;2.40;;
19679;SDS011;9989;48.962;9.182;2023-08-08T04:15:33;6.00;;;2.53;;
19679;SDS011;9989;48.962;9.182;2023-08-08T04:17:58;4.43;;;2.10;;
19679;SDS011;9989;48.962;9.182;2023-08-08T04:20:24;5.30;;;2.43;;
19679;SDS011;9989;48.962;9.182;2023-08-08T04:22:50;5.20;;;2.30;;
19679;SDS011;9989;48.962;9.182;2023-08-08T04:25:15;5.77;;;2.70;;
19679;SDS011;9989;48.962;9.182;2023-08-08T04:27:41;5.23;;;2.30;;
19679;SDS011;9989;48.962;9.182;2023-08-08T04:30:07;5.37;;;2.33;;
19679;SDS011;9989;48.962;9.182;2023-08-08T04:32:33;5.37;;;2.30;;
19679;SDS011;9989;48.962;9.182;2023-08-08T04:34:59;6.60;;;2.43;;
19679;SDS011;9989;48.962;9.182;2023-08-08T04:37:25;5.33;;;2.30;;
19679;SDS011;9989;48.962;9.182;2023-08-08T04:39:50;5.53;;;2.20;;
19679;SDS011;9989;48.962;9.182;2023-08-08T04:42:16;4.90;;;2.20;;
19679;SDS011;9989;48.962;9.182;2023-08-08T04:44:42;5.53;;;2.37;;
19679;SDS011;9989;48.962;9.182;2023-08-08T04:47:07;7.03;;;2.47;;
19679;SDS011;9989;48.962;9.182;2023-08-08T04:49:33;6.30;;;2.63;;
19679;SDS011;9989;48.962;9.182;2023-08-08T04:51:58;6.00;;;2.50;;
19679;SDS011;9989;48.962;9.182;2023-08-08T04:54:24;5.43;;;2.37;;
19679;SDS011;9989;48.962;9.182;2023-08-08T04:56:50;9.37;;;3.17;;
19679;SDS011;9989;48.962;9.182;2023-08-08T04:59:15;6.23;;;2.70;;
19679;SDS011;9989;48.962;9.182;2023-08-08T05:01:41;6.57;;;2.70;;
19679;SDS011;9989;48.962;9.182;2023-08-08T05:04:06;5.40;;;2.43;;
19679;SDS011;9989;48.962;9.182;2023-08-08T05:06:32;5.83;;;2.57;;
19679;SDS011;9989;48.962;9.182;2023-08-08T05:08:58;7.33;;;2.80;;
19679;SDS011;9989;48.962;9.182;2023-08-08T05:11:23;5.57;;;2.50;;
19679;SDS011;9989;48.962;9.182;2023-08-08T05:13:49;5.20;;;2.60;;
19679;SDS011;9989;48.962;9.182;2023-08-08T05:16:15;4.37;;;2.30;;
19679;SDS011;9989;48.962;9.182;2023-08-08T05:18:40;6.70;;;2.77;;
19679;SDS011;9989;48.962;9.182;2023-08-08T05:21:09;7.13;;;2.67;;
19679;SDS011;9989;48.962;9.182;2023-08-08T05:23:34;5.77;;;2.30;;
19679;SDS011;9989;48.962;9.182;2023-08-08T05:26:00;5.70;;;2.57;;
19679;SDS011;9989;48.962;9.182;2023-08-08T05:28:26;6.40;;;2.30;;
19679;SDS011;9989;48.962;9.182;2023-08-08T05:30:52;7.87;;;2.60;;
19679;SDS011;9989;48.962;9.182;2023-08-08T05:33:17;6.17;;;2.40;;
19679;SDS011;9989;48.962;9.182;2023-08-08T05:35:43;6.57;;;2.57;;
19679;SDS011;9989;48.962;9.182;2023-08-08T05:38:09;8.83;;;2.90;;
19679;SDS011;9989;48.962;9.182;2023-08-08T05:40:35;5.33;;;2.20;;
19679;SDS011;9989;48.962;9.182;2023-08-08T05:43:01;5.80;;;2.40;;
19679;SDS011;9989;48.962;9.182;2023-08-08T05:45:27;5.87;;;2.53;;
19679;SDS011;9989;48.962;9.182;2023-08-08T05:47:53;7.80;;;2.47;;
19679;SDS011;9989;48.962;9.182;2023-08-08T05:50:20;4.83;;;2.43;;
19679;SDS011;9989;48.962;9.182;2023-08-08T05:52:46;5.30;;;2.50;;
19679;SDS011;9989;48.962;9.182;2023-08-08T05:55:11;5.63;;;2.40;;
19679;SDS011;9989;48.962;9.182;2023-08-08T05:57:37;8.27;;;2.97;;
19679;SDS011;9989;48.962;9.182;2023-08-08T06:00:03;5.87;;;2.70;;
19679;SDS011;9989;48.962;9.182;2023-08-08T06:02:30;5.60;;;2.53;;
19679;SDS011;9989;48.962;9.182;2023-08-08T06:04:56;8.73;;;3.07;;
19679;SDS011;9989;48.962;9.182;2023-08-08T06:07:21;6.00;;;2.80;;
19679;SDS011;9989;48.962;9.182;2023-08-08T06:09:47;6.50;;;2.30;;
19679;SDS011;9989;48.962;9.182;2023-08-08T06:12:12;6.97;;;2.80;;
19679;SDS011;9989;48.962;9.182;2023-08-08T06:14:38;7.17;;;3.17;;
19679;SDS011;9989;48.962;9.182;2023-08-08T06:17:04;11.80;;;2.93;;
19679;SDS011;9989;48.962;9.182;2023-08-08T06:19:30;6.80;;;2.87;;
19679;SDS011;9989;48.962;9.182;2023-08-08T06:21:56;14.83;;;3.30;;
19679;SDS011;9989;48.962;9.182;2023-08-08T06:24:22;8.13;;;2.40;;
19679;SDS011;9989;48.962;9.182;2023-08-08T06:26:47;6.03;;;2.30;;
19679;SDS011;9989;48.962;9.182;2023-08-08T06:29:13;6.83;;;2.50;;
19679;SDS011;9989;48.962;9.182;2023-08-08T06:31:39;6.33;;;2.43;;
19679;SDS011;9989;48.962;9.182;2023-08-08T06:34:05;8.87;;;2.80;;
19679;SDS011;9989;48.962;9.182;2023-08-08T06:36:31;7.07;;;2.80;;
19679;SDS011;9989;48.962;9.182;2023-08-08T06:38:56;5.93;;;2.30;;
19679;SDS011;9989;48.962;9.182;2023-08-08T06:41:22;5.83;;;2.30;;
19679;SDS011;9989;48.962;9.182;2023-08-08T06:43:48;5.97;;;2.10;;
19679;SDS011;9989;48.962;9.182;2023-08-08T06:46:13;5.47;;;2.40;;
19679;SDS011;9989;48.962;9.182;2023-08-08T06:48:41;6.43;;;2.47;;
19679;SDS011;9989;48.962;9.182;2023-08-08T06:51:07;8.07;;;2.30;;
19679;SDS011;9989;48.962;9.182;2023-08-08T06:53:33;7.43;;;2.30;;
19679;SDS011;9989;48.962;9.182;2023-08-08T06:55:58;4.57;;;1.90;;
19679;SDS011;9989;48.962;9.182;2023-08-08T06:58:24;6.87;;;2.07;;
19679;SDS011;9989;48.962;9.182;2023-08-08T07:00:50;4.80;;;2.10;;
19679;SDS011;9989;48.962;9.182;2023-08-08T07:03:16;4.80;;;1.90;;
19679;SDS011;9989;48.962;9.182;2023-08-08T07:05:41;8.80;;;2.17;;
19679;SDS011;9989;48.962;9.182;2023-08-08T07:08:07;5.47;;;1.97;;
19679;SDS011;9989;48.962;9.182;2023-08-08T07:10:34;3.60;;;1.70;;
19679;SDS011;9989;48.962;9.182;2023-08-08T07:13:00;4.53;;;2.00;;
19679;SDS011;9989;48.962;9.182;2023-08-08T07:15:26;4.70;;;1.97;;
19679;SDS011;9989;48.962;9.182;2023-08-08T07:17:52;4.13;;;1.80;;
19679;SDS011;9989;48.962;9.182;2023-08-08T07:20:18;6.00;;;2.27;;
19679;SDS011;9989;48.962;9.182;2023-08-08T07:22:44;5.17;;;1.83;;
19679;SDS011;9989;48.962;9.182;2023-08-08T07:25:10;4.57;;;1.90;;
19679;SDS011;9989;48.962;9.182;2023-08-08T07:27:36;4.73;;;1.90;;
19679;SDS011;9989;48.962;9.182;2023-08-08T07:30:03;4.13;;;1.67;;
19679;SDS011;9989;48.962;9.182;2023-08-08T07:32:29;6.00;;;1.80;;
19679;SDS011;9989;48.962;9.182;2023-08-08T07:34:55;5.87;;;1.63;;
19679;SDS011;9989;48.962;9.182;2023-08-08T07:37:20;5.27;;;1.80;;
19679;SDS011;9989;48.962;9.182;2023-08-08T07:39:46;4.67;;;1.80;;
19679;SDS011;9989;48.962;9.182;2023-08-08T07:42:12;7.03;;;1.77;;
19679;SDS011;9989;48.962;9.182;2023-08-08T07:44:38;4.87;;;1.63;;
19679;SDS011;9989;48.962;9.182;2023-08-08T07:47:04;6.23;;;1.83;;
19679;SDS011;9989;48.962;9.182;2023-08-08T07:49:30;5.23;;;1.80;;
19679;SDS011;9989;48.962;9.182;2023-08-08T07:51:55;3.97;;;1.63;;
19679;SDS011;9989;48.962;9.182;2023-08-08T07:54:21;4.73;;;1.80;;
19679;SDS011;9989;48.962;9.182;2023-08-08T07:56:47;4.33;;;1.40;;
19679;SDS011;9989;48.962;9.182;2023-08-08T07:59:12;2.90;;;1.33;;
19679;SDS011;9989;48.962;9.182;2023-08-08T08:01:38;4.23;;;1.67;;
19679;SDS011;9989;48.962;9.182;2023-08-08T08:04:04;3.97;;;1.70;;
19679;SDS011;9989;48.962;9.182;2023-08-08T08:06:29;6.97;;;1.97;;
19679;SDS011;9989;48.962;9.182;2023-08-08T08:08:55;3.73;;;1.77;;
19679;SDS011;9989;48.962;9.182;2023-08-08T08:11:21;4.23;;;1.73;;
19679;SDS011;9989;48.962;9.182;2023-08-08T08:13:47;3.20;;;1.30;;
19679;SDS011;9989;48.962;9.182;2023-08-08T08:16:12;3.23;;;1.63;;
19679;SDS011;9989;48.962;9.182;2023-08-08T08:18:38;5.87;;;1.93;;
19679;SDS011;9989;48.962;9.182;2023-08-08T08:21:04;5.43;;;1.80;;
19679;SDS011;9989;48.962;9.182;2023-08-08T08:23:30;4.87;;;1.40;;
19679;SDS011;9989;48.962;9.182;2023-08-08T08:25:57;5.83;;;1.50;;
19679;SDS011;9989;48.962;9.182;2023-08-08T08:28:23;5.53;;;1.70;;
19679;SDS011;9989;48.962;9.182;2023-08-08T08:30:50;6.90;;;1.70;;
19679;SDS011;9989;48.962;9.182;2023-08-08T08:33:16;2.93;;;1.50;;
19679;SDS011;9989;48.962;9.182;2023-08-08T08:35:41;5.73;;;1.73;;
19679;SDS011;9989;48.962;9.182;2023-08-08T08:38:07;3.43;;;1.50;;
19679;SDS011;9989;48.962;9.182;2023-08-08T08:40:34;4.70;;;1.50;;
19679;SDS011;9989;48.962;9.182;2023-08-08T08:43:03;5.53;;;1.53;;
19679;SDS011;9989;48.962;9.182;2023-08-08T08:45:30;3.37;;;1.30;;
19679;SDS011;9989;48.962;9.182;2023-08-08T08:47:57;3.30;;;1.70;;
19679;SDS011;9989;48.962;9.182;2023-08-08T08:50:24;4.83;;;1.50;;
19679;SDS011;9989;48.962;9.182;2023-08-08T08:52:52;6.27;;;1.60;;
19679;SDS011;9989;48.962;9.182;2023-08-08T08:55:21;4.10;;;1.40;;
19679;SDS011;9989;48.962;9.182;2023-08-08T08:57:47;6.60;;;1.60;;
19679;SDS011;9989;48.962;9.182;2023-08-08T09:00:14;2.83;;;1.43;;
19679;SDS011;9989;48.962;9.182;2023-08-08T09:02:41;5.13;;;1.70;;
19679;SDS011;9989;48.962;9.182;2023-08-08T09:05:07;5.37;;;1.60;;
19679;SDS011;9989;48.962;9.182;2023-08-08T09:07:33;4.30;;;1.63;;
19679;SDS011;9989;48.962;9.182;2023-08-08T09:10:01;5.27;;;1.77;;
19679;SDS011;9989;48.962;9.182;2023-08-08T09:12:28;3.43;;;1.30;;
19679;SDS011;9989;48.962;9.182;2023-08-08T09:14:56;4.33;;;1.73;;
19679;SDS011;9989;48.962;9.182;2023-08-08T09:17:24;3.73;;;1.80;;
19679;SDS011;9989;48.962;9.182;2023-08-08T09:19:52;7.90;;;1.97;;
19679;SDS011;9989;48.962;9.182;2023-08-08T09:22:19;7.00;;;2.30;;
19679;SDS011;9989;48.962;9.182;2023-08-08T09:24:45;3.83;;;1.80;;
19679;SDS011;9989;48.962;9.182;2023-08-08T09:27:11;4.07;;;1.60;;
19679;SDS011;9989;48.962;9.182;2023-08-08T09:29:38;6.20;;;1.67;;
19679;SDS011;9989;48.962;9.182;2023-08-08T09:32:07;4.80;;;1.50;;
19679;SDS011;9989;48.962;9.182;2023-08-08T09:34:33;4.13;;;1.57;;
19679;SDS011;9989;48.962;9.182;2023-08-08T09:37:00;5.73;;;1.70;;
19679;SDS011;9989;48.962;9.182;2023-08-08T09:39:26;3.87;;;1.60;;
19679;SDS011;9989;48.962;9.182;2023-08-08T09:41:53;5.13;;;1.50;;
19679;SDS011;9989;48.962;9.182;2023-08-08T09:44:22;7.70;;;2.00;;
19679;SDS011;9989;48.962;9.182;2023-08-08T09:46:51;4.90;;;1.67;;
19679;SDS011;9989;48.962;9.182;2023-08-08T09:49:17;5.87;;;1.77;;
19679;SDS011;9989;48.962;9.182;2023-08-08T09:51:44;4.37;;;1.70;;
19679;SDS011;9989;48.962;9.182;2023-08-08T09:54:10;3.70;;;1.77;;
19679;SDS011;9989;48.962;9.182;2023-08-08T09:56:37;4.10;;;1.60;;
19679;SDS011;9989;48.962;9.182;2023-08-08T09:59:04;3.63;;;1.30;;
19679;SDS011;9989;48.962;9.182;2023-08-08T10:01:31;3.93;;;1.50;;
19679;SDS011;9989;48.962;9.182;2023-08-08T10:03:57;7.50;;;1.50;;
19679;SDS011;9989;48.962;9.182;2023-08-08T10:06:24;3.80;;;1.57;;
19679;SDS011;9989;48.962;9.182;2023-08-08T10:08:51;3.90;;;1.70;;
19679;SDS011;9989;48.962;9.182;2023-08-08T10:11:18;4.23;;;1.83;;
19679;SDS011;9989;48.962;9.182;2023-08-08T10:13:48;8.17;;;2.00;;
19679;SDS011;9989;48.962;9.182;2023-08-08T10:16:15;6.13;;;1.70;;
19679;SDS011;9989;48.962;9.182;2023-08-08T10:18:42;5.27;;;2.10;;
19679;SDS011;9989;48.962;9.182;2023-08-08T10:21:08;4.27;;;1.73;;
19679;SDS011;9989;48.962;9.182;2023-08-08T10:23:38;3.80;;;1.57;;
19679;SDS011;9989;48.962;9.182;2023-08-08T10:26:18;7.47;;;1.80;;
19679;SDS011;9989;48.962;9.182;2023-08-08T10:28:56;6.33;;;1.73;;
19679;SDS011;9989;48.962;9.182;2023-08-08T10:31:24;5.77;;;1.73;;
19679;SDS011;9989;48.962;9.182;2023-08-08T10:33:50;3.93;;;1.50;;
19679;SDS011;9989;48.962;9.182;2023-08-08T10:36:42;6.57;;;1.60;;
19679;SDS011;9989;48.962;9.182;2023-08-08T10:39:10;4.17;;;1.43;;
19679;SDS011;9989;48.962;9.182;2023-08-08T10:41:44;4.00;;;1.40;;
19679;SDS011;9989;48.962;9.182;2023-08-08T10:44:21;2.83;;;1.40;;
19679;SDS011;9989;48.962;9.182;2023-08-08T10:46:50;4.17;;;1.67;;
19679;SDS011;9989;48.962;9.182;2023-08-08T10:49:17;4.10;;;1.47;;
19679;SDS011;9989;48.962;9.182;2023-08-08T10:51:44;4.83;;;1.40;;
19679;SDS011;9989;48.962;9.182;2023-08-08T10:54:12;4.27;;;1.37;;
19679;SDS011;9989;48.962;9.182;2023-08-08T10:56:53;3.10;;;1.37;;
19679;SDS011;9989;48.962;9.182;2023-08-08T10:59:41;4.57;;;1.40;;
19679;SDS011;9989;48.962;9.182;2023-08-08T11:02:05;2.63;;;1.27;;
19679;SDS011;9989;48.962;9.182;2023-08-08T11:04:32;4.93;;;1.50;;
19679;SDS011;9989;48.962;9.182;2023-08-08T11:06:59;4.43;;;1.60;;
19679;SDS011;9989;48.962;9.182;2023-08-08T11:09:26;3.47;;;1.47;;
19679;SDS011;9989;48.962;9.182;2023-08-08T11:11:52;3.23;;;1.40;;
19679;SDS011;9989;48.962;9.182;2023-08-08T11:14:18;4.53;;;1.43;;
19679;SDS011;9989;48.962;9.182;2023-08-08T11:16:46;4.30;;;1.60;;
19679;SDS011;9989;48.962;9.182;2023-08-08T11:19:13;4.50;;;1.67;;
19679;SDS011;9989;48.962;9.182;2023-08-08T11:21:40;3.57;;;1.53;;
19679;SDS011;9989;48.962;9.182;2023-08-08T11:24:07;4.03;;;1.40;;
19679;SDS011;9989;48.962;9.182;2023-08-08T11:26:34;4.97;;;1.73;;
19679;SDS011;9989;48.962;9.182;2023-08-08T11:29:01;2.63;;;1.30;;
19679;SDS011;9989;48.962;9.182;2023-08-08T11:31:29;4.53;;;1.60;;
19679;SDS011;9989;48.962;9.182;2023-08-08T11:33:55;4.77;;;1.50;;
19679;SDS011;9989;48.962;9.182;2023-08-08T11:36:21;5.23;;;1.60;;
19679;SDS011;9989;48.962;9.182;2023-08-08T11:38:49;6.90;;;1.77;;
19679;SDS011;9989;48.962;9.182;2023-08-08T11:41:17;5.40;;;1.67;;
19679;SDS011;9989;48.962;9.182;2023-08-08T11:43:47;4.37;;;1.57;;
19679;SDS011;9989;48.962;9.182;2023-08-08T11:46:15;7.17;;;1.80;;
19679;SDS011;9989;48.962;9.182;2023-08-08T11:48:41;3.13;;;1.70;;
19679;SDS011;9989;48.962;9.182;2023-08-08T11:51:07;4.23;;;1.70;;
19679;SDS011;9989;48.962;9.182;2023-08-08T11:53:34;3.33;;;1.60;;
19679;SDS011;9989;48.962;9.182;2023-08-08T11:56:01;4.00;;;1.90;;
19679;SDS011;9989;48.962;9.182;2023-08-08T11:58:28;2.70;;;1.10;;
19679;SDS011;9989;48.962;9.182;2023-08-08T12:00:56;4.37;;;1.60;;
19679;SDS011;9989;48.962;9.182;2023-08-08T12:03:22;3.07;;;1.57;;
19679;SDS011;9989;48.962;9.182;2023-08-08T12:05:51;4.83;;;1.60;;
19679;SDS011;9989;48.962;9.182;2023-08-08T12:08:20;5.63;;;1.60;;
19679;SDS011;9989;48.962;9.182;2023-08-08T12:10:50;2.77;;;1.30;;
19679;SDS011;9989;48.962;9.182;2023-08-08T12:13:22;3.70;;;1.57;;
19679;SDS011;9989;48.962;9.182;2023-08-08T12:15:52;4.50;;;1.50;;
19679;SDS011;9989;48.962;9.182;2023-08-08T12:18:18;4.50;;;1.90;;
19679;SDS011;9989;48.962;9.182;2023-08-08T12:20:45;5.57;;;1.80;;
19679;SDS011;9989;48.962;9.182;2023-08-08T12:23:11;4.00;;;1.70;;
19679;SDS011;9989;48.962;9.182;2023-08-08T12:25:37;3.73;;;1.70;;
19679;SDS011;9989;48.962;9.182;2023-08-08T12:28:03;2.50;;;1.13;;
19679;SDS011;9989;48.962;9.182;2023-08-08T12:30:30;3.10;;;1.40;;
19679;SDS011;9989;48.962;9.182;2023-08-08T12:32:56;4.23;;;1.63;;
19679;SDS011;9989;48.962;9.182;2023-08-08T12:35:22;4.27;;;1.60;;
19679;SDS011;9989;48.962;9.182;2023-08-08T12:37:48;6.03;;;1.80;;
19679;SDS011;9989;48.962;9.182;2023-08-08T12:40:13;4.67;;;1.70;;
19679;SDS011;9989;48.962;9.182;2023-08-08T12:42:39;4.00;;;1.40;;
19679;SDS011;9989;48.962;9.182;2023-08-08T12:45:05;3.87;;;1.57;;
19679;SDS011;9989;48.962;9.182;2023-08-08T12:47:32;2.70;;;1.20;;
19679;SDS011;9989;48.962;9.182;2023-08-08T12:50:01;4.47;;;1.83;;
19679;SDS011;9989;48.962;9.182;2023-08-08T12:52:28;5.07;;;2.03;;
19679;SDS011;9989;48.962;9.182;2023-08-08T12:54:53;3.67;;;1.40;;
19679;SDS011;9989;48.962;9.182;2023-08-08T12:57:19;4.80;;;1.60;;
19679;SDS011;9989;48.962;9.182;2023-08-08T12:59:45;3.70;;;1.40;;
19679;SDS011;9989;48.962;9.182;2023-08-08T13:02:10;4.53;;;1.87;;
19679;SDS011;9989;48.962;9.182;2023-08-08T13:04:37;3.30;;;1.20;;
19679;SDS011;9989;48.962;9.182;2023-08-08T13:07:03;3.50;;;1.20;;
19679;SDS011;9989;48.962;9.182;2023-08-08T13:09:29;5.63;;;1.30;;
19679;SDS011;9989;48.962;9.182;2023-08-08T13:11:55;3.27;;;1.67;;
19679;SDS011;9989;48.962;9.182;2023-08-08T13:14:23;3.67;;;1.50;;
19679;SDS011;9989;48.962;9.182;2023-08-08T13:16:49;2.67;;;1.27;;
19679;SDS011;9989;48.962;9.182;2023-08-08T13:19:15;3.57;;;1.40;;
19679;SDS011;9989;48.962;9.182;2023-08-08T13:21:44;3.77;;;1.53;;
19679;SDS011;9989;48.962;9.182;2023-08-08T13:24:10;6.33;;;1.57;;
19679;SDS011;9989;48.962;9.182;2023-08-08T13:26:38;7.13;;;1.50;;
19679;SDS011;9989;48.962;9.182;2023-08-08T13:29:04;3.57;;;1.47;;
19679;SDS011;9989;48.962;9.182;2023-08-08T13:31:29;7.10;;;1.60;;
19679;SDS011;9989;48.962;9.182;2023-08-08T13:33:55;2.83;;;1.37;;
19679;SDS011;9989;48.962;9.182;2023-08-08T13:36:21;3.57;;;1.50;;
19679;SDS011;9989;48.962;9.182;2023-08-08T13:38:46;5.27;;;1.90;;
19679;SDS011;9989;48.962;9.182;2023-08-08T13:41:12;5.33;;;1.93;;
19679;SDS011;9989;48.962;9.182;2023-08-08T13:43:38;5.37;;;1.40;;
19679;SDS011;9989;48.962;9.182;2023-08-08T13:46:04;6.13;;;1.60;;
19679;SDS011;9989;48.962;9.182;2023-08-08T13:48:33;3.10;;;1.37;;
19679;SDS011;9989;48.962;9.182;2023-08-08T13:50:59;4.73;;;1.77;;
19679;SDS011;9989;48.962;9.182;2023-08-08T13:53:25;3.97;;;1.70;;
19679;SDS011;9989;48.962;9.182;2023-08-08T13:55:50;3.70;;;1.40;;
19679;SDS011;9989;48.962;9.182;2023-08-08T13:58:16;3.90;;;1.67;;
19679;SDS011;9989;48.962;9.182;2023-08-08T14:00:42;2.97;;;1.50;;
19679;SDS011;9989;48.962;9.182;2023-08-08T14:03:07;3.93;;;1.70;;
19679;SDS011;9989;48.962;9.182;2023-08-08T14:05:33;4.33;;;1.50;;
19679;SDS011;9989;48.962;9.182;2023-08-08T14:07:59;3.93;;;1.53;;
19679;SDS011;9989;48.962;9.182;2023-08-08T14:10:25;4.93;;;1.63;;
19679;SDS011;9989;48.962;9.182;2023-08-08T14:12:50;3.47;;;1.30;;
19679;SDS011;9989;48.962;9.182;2023-08-08T14:15:16;6.17;;;1.43;;
19679;SDS011;9989;48.962;9.182;2023-08-08T14:17:42;2.80;;;1.37;;
19679;SDS011;9989;48.962;9.182;2023-08-08T14:20:08;2.37;;;1.20;;
19679;SDS011;9989;48.962;9.182;2023-08-08T14:22:34;4.03;;;1.57;;
19679;SDS011;9989;48.962;9.182;2023-08-08T14:25:00;3.70;;;1.57;;
19679;SDS011;9989;48.962;9.182;2023-08-08T14:27:27;4.97;;;1.90;;
19679;SDS011;9989;48.962;9.182;2023-08-08T14:29:52;3.47;;;1.53;;
19679;SDS011;9989;48.962;9.182;2023-08-08T14:32:18;3.70;;;1.37;;
19679;SDS011;9989;48.962;9.182;2023-08-08T14:34:43;2.90;;;1.40;;
19679;SDS011;9989;48.962;9.182;2023-08-08T14:37:09;3.07;;;1.50;;
19679;SDS011;9989;48.962;9.182;2023-08-08T14:39:35;4.47;;;1.87;;
19679;SDS011;9989;48.962;9.182;2023-08-08T14:42:01;3.57;;;1.63;;
19679;SDS011;9989;48.962;9.182;2023-08-08T14:44:27;7.73;;;1.70;;
19679;SDS011;9989;48.962;9.182;2023-08-08T14:46:53;4.67;;;2.00;;
19679;SDS011;9989;48.962;9.182;2023-08-08T14:49:18;7.17;;;2.20;;
19679;SDS011;9989;48.962;9.182;2023-08-08T14:51:44;4.43;;;1.63;;
19679;SDS011;9989;48.962;9.182;2023-08-08T14:54:10;4.67;;;1.77;;
19679;SDS011;9989;48.962;9.182;2023-08-08T14:56:35;5.10;;;2.00;;
19679;SDS011;9989;48.962;9.182;2023-08-08T14:59:01;3.97;;;1.60;;